sensor_id;sensor_type;location;lat;lon;timestamp;P1;durP1;ratioP1;P2;durP2;ratioP2
27666;SDS011;15074;50.940;5.282;2023-06-19T00:01:54;3.97;;;2.92;;
27666;SDS011;15074;50.940;5.282;2023-06-19T00:04:20;3.40;;;2.85;;
27666;SDS011;15074;50.940;5.282;2023-06-19T00:06:45;3.25;;;2.88;;
27666;SDS011;15074;50.940;5.282;2023-06-19T00:09:11;3.70;;;3.00;;
27666;SDS011;15074;50.940;5.282;2023-06-19T00:11:38;3.30;;;2.90;;
27666;SDS011;15074;50.940;5.282;2023-06-19T00:14:03;2.67;;;2.47;;
27666;SDS011;15074;50.940;5.282;2023-06-19T00:16:29;2.88;;;2.58;;
27666;SDS011;15074;50.940;5.282;2023-06-19T00:18:55;3.95;;;3.35;;
27666;SDS011;15074;50.940;5.282;2023-06-19T00:21:22;4.55;;;3.13;;
27666;SDS011;15074;50.940;5.282;2023-06-19T00:23:51;3.30;;;2.67;;
27666;SDS011;15074;50.940;5.282;2023-06-19T00:26:18;3.40;;;3.10;;
27666;SDS011;15074;50.940;5.282;2023-06-19T00:28:47;3.13;;;2.83;;
27666;SDS011;15074;50.940;5.282;2023-06-19T00:31:16;3.65;;;3.28;;
27666;SDS011;15074;50.940;5.282;2023-06-19T00:33:44;3.00;;;2.70;;
27666;SDS011;15074;50.940;5.282;2023-06-19T00:36:12;3.22;;;2.65;;
27666;SDS011;15074;50.940;5.282;2023-06-19T00:38:40;3.30;;;3.00;;
27666;SDS011;15074;50.940;5.282;2023-06-19T00:41:06;3.75;;;2.97;;
27666;SDS011;15074;50.940;5.282;2023-06-19T00:43:33;3.30;;;3.00;;
27666;SDS011;15074;50.940;5.282;2023-06-19T00:46:00;3.60;;;2.67;;
27666;SDS011;15074;50.940;5.282;2023-06-19T00:48:27;3.08;;;2.55;;
27666;SDS011;15074;50.940;5.282;2023-06-19T00:50:55;4.53;;;3.28;;
27666;SDS011;15074;50.940;5.282;2023-06-19T00:53:22;3.50;;;2.80;;
27666;SDS011;15074;50.940;5.282;2023-06-19T00:55:48;3.33;;;2.67;;
27666;SDS011;15074;50.940;5.282;2023-06-19T00:58:16;3.90;;;3.00;;
27666;SDS011;15074;50.940;5.282;2023-06-19T01:00:43;3.40;;;2.92;;
27666;SDS011;15074;50.940;5.282;2023-06-19T01:03:08;3.65;;;3.03;;
27666;SDS011;15074;50.940;5.282;2023-06-19T01:05:34;3.00;;;2.65;;
27666;SDS011;15074;50.940;5.282;2023-06-19T01:08:07;3.47;;;2.78;;
27666;SDS011;15074;50.940;5.282;2023-06-19T01:11:08;3.73;;;2.80;;
27666;SDS011;15074;50.940;5.282;2023-06-19T01:13:45;3.65;;;2.65;;
27666;SDS011;15074;50.940;5.282;2023-06-19T01:16:15;3.00;;;2.67;;
27666;SDS011;15074;50.940;5.282;2023-06-19T01:18:43;3.53;;;2.65;;
27666;SDS011;15074;50.940;5.282;2023-06-19T01:21:16;4.10;;;2.70;;
27666;SDS011;15074;50.940;5.282;2023-06-19T01:23:43;2.83;;;2.20;;
27666;SDS011;15074;50.940;5.282;2023-06-19T01:26:10;2.83;;;2.50;;
27666;SDS011;15074;50.940;5.282;2023-06-19T01:28:36;2.67;;;2.40;;
27666;SDS011;15074;50.940;5.282;2023-06-19T01:31:15;2.42;;;2.15;;
27666;SDS011;15074;50.940;5.282;2023-06-19T01:33:50;2.95;;;2.15;;
27666;SDS011;15074;50.940;5.282;2023-06-19T01:36:19;3.00;;;2.60;;
27666;SDS011;15074;50.940;5.282;2023-06-19T01:38:45;3.00;;;2.25;;
27666;SDS011;15074;50.940;5.282;2023-06-19T01:41:13;2.90;;;2.40;;
27666;SDS011;15074;50.940;5.282;2023-06-19T01:43:41;3.22;;;2.03;;
27666;SDS011;15074;50.940;5.282;2023-06-19T01:46:08;2.97;;;2.50;;
27666;SDS011;15074;50.940;5.282;2023-06-19T01:48:34;3.25;;;2.08;;
27666;SDS011;15074;50.940;5.282;2023-06-19T01:51:01;3.17;;;2.10;;
27666;SDS011;15074;50.940;5.282;2023-06-19T01:53:29;3.63;;;2.33;;
27666;SDS011;15074;50.940;5.282;2023-06-19T01:55:56;9.70;;;2.50;;
27666;SDS011;15074;50.940;5.282;2023-06-19T01:58:23;3.42;;;2.30;;
27666;SDS011;15074;50.940;5.282;2023-06-19T02:00:48;3.25;;;2.47;;
27666;SDS011;15074;50.940;5.282;2023-06-19T02:03:14;2.60;;;2.40;;
27666;SDS011;15074;50.940;5.282;2023-06-19T02:05:40;4.40;;;2.25;;
27666;SDS011;15074;50.940;5.282;2023-06-19T02:08:05;4.20;;;2.78;;
27666;SDS011;15074;50.940;5.282;2023-06-19T02:10:32;5.00;;;2.95;;
27666;SDS011;15074;50.940;5.282;2023-06-19T02:12:57;3.83;;;2.75;;
27666;SDS011;15074;50.940;5.282;2023-06-19T02:15:23;3.13;;;2.70;;
27666;SDS011;15074;50.940;5.282;2023-06-19T02:17:49;2.65;;;2.45;;
27666;SDS011;15074;50.940;5.282;2023-06-19T02:20:20;3.10;;;2.63;;
27666;SDS011;15074;50.940;5.282;2023-06-19T02:22:51;3.38;;;2.78;;
27666;SDS011;15074;50.940;5.282;2023-06-19T02:25:17;3.08;;;2.78;;
27666;SDS011;15074;50.940;5.282;2023-06-19T02:27:43;3.60;;;3.30;;
27666;SDS011;15074;50.940;5.282;2023-06-19T02:30:10;4.05;;;2.78;;
27666;SDS011;15074;50.940;5.282;2023-06-19T02:32:36;4.40;;;2.80;;
27666;SDS011;15074;50.940;5.282;2023-06-19T02:35:02;4.18;;;2.60;;
27666;SDS011;15074;50.940;5.282;2023-06-19T02:37:29;3.13;;;2.50;;
27666;SDS011;15074;50.940;5.282;2023-06-19T02:39:55;3.65;;;2.55;;
27666;SDS011;15074;50.940;5.282;2023-06-19T02:42:21;4.00;;;2.70;;
27666;SDS011;15074;50.940;5.282;2023-06-19T02:44:46;3.20;;;2.83;;
27666;SDS011;15074;50.940;5.282;2023-06-19T02:47:12;3.35;;;2.30;;
27666;SDS011;15074;50.940;5.282;2023-06-19T02:49:38;3.03;;;2.72;;
27666;SDS011;15074;50.940;5.282;2023-06-19T02:52:04;3.00;;;2.60;;
27666;SDS011;15074;50.940;5.282;2023-06-19T02:54:39;3.88;;;2.85;;
27666;SDS011;15074;50.940;5.282;2023-06-19T02:57:05;3.22;;;2.92;;
27666;SDS011;15074;50.940;5.282;2023-06-19T02:59:31;4.18;;;3.20;;
27666;SDS011;15074;50.940;5.282;2023-06-19T03:01:56;4.47;;;2.85;;
27666;SDS011;15074;50.940;5.282;2023-06-19T03:04:22;4.20;;;3.30;;
27666;SDS011;15074;50.940;5.282;2023-06-19T03:06:48;3.17;;;2.78;;
27666;SDS011;15074;50.940;5.282;2023-06-19T03:09:14;3.67;;;2.90;;
27666;SDS011;15074;50.940;5.282;2023-06-19T03:11:43;3.13;;;2.83;;
27666;SDS011;15074;50.940;5.282;2023-06-19T03:14:08;3.67;;;2.92;;
27666;SDS011;15074;50.940;5.282;2023-06-19T03:16:34;5.10;;;3.00;;
27666;SDS011;15074;50.940;5.282;2023-06-19T03:19:00;3.60;;;3.15;;
27666;SDS011;15074;50.940;5.282;2023-06-19T03:21:26;3.55;;;3.22;;
27666;SDS011;15074;50.940;5.282;2023-06-19T03:23:52;3.97;;;2.63;;
27666;SDS011;15074;50.940;5.282;2023-06-19T03:26:21;3.40;;;3.10;;
27666;SDS011;15074;50.940;5.282;2023-06-19T03:28:47;5.88;;;2.70;;
27666;SDS011;15074;50.940;5.282;2023-06-19T03:31:13;3.42;;;2.33;;
27666;SDS011;15074;50.940;5.282;2023-06-19T03:33:39;4.57;;;2.90;;
27666;SDS011;15074;50.940;5.282;2023-06-19T03:36:05;3.15;;;2.63;;
27666;SDS011;15074;50.940;5.282;2023-06-19T03:38:31;4.68;;;2.90;;
27666;SDS011;15074;50.940;5.282;2023-06-19T03:40:56;3.88;;;2.88;;
27666;SDS011;15074;50.940;5.282;2023-06-19T03:43:22;3.22;;;2.85;;
27666;SDS011;15074;50.940;5.282;2023-06-19T03:45:48;3.65;;;2.50;;
27666;SDS011;15074;50.940;5.282;2023-06-19T03:48:14;3.92;;;3.53;;
27666;SDS011;15074;50.940;5.282;2023-06-19T03:50:40;4.25;;;3.00;;
27666;SDS011;15074;50.940;5.282;2023-06-19T03:53:06;3.20;;;2.85;;
27666;SDS011;15074;50.940;5.282;2023-06-19T03:55:32;3.20;;;2.88;;
27666;SDS011;15074;50.940;5.282;2023-06-19T03:57:58;3.22;;;2.90;;
27666;SDS011;15074;50.940;5.282;2023-06-19T04:00:24;2.97;;;2.63;;
27666;SDS011;15074;50.940;5.282;2023-06-19T04:02:50;4.20;;;2.97;;
27666;SDS011;15074;50.940;5.282;2023-06-19T04:05:16;3.78;;;3.42;;
27666;SDS011;15074;50.940;5.282;2023-06-19T04:07:42;3.60;;;3.10;;
27666;SDS011;15074;50.940;5.282;2023-06-19T04:10:07;3.35;;;3.00;;
27666;SDS011;15074;50.940;5.282;2023-06-19T04:12:33;5.05;;;3.63;;
27666;SDS011;15074;50.940;5.282;2023-06-19T04:14:59;5.03;;;3.28;;
27666;SDS011;15074;50.940;5.282;2023-06-19T04:17:25;4.00;;;3.58;;
27666;SDS011;15074;50.940;5.282;2023-06-19T04:19:50;3.88;;;3.50;;
27666;SDS011;15074;50.940;5.282;2023-06-19T04:22:16;4.10;;;3.35;;
27666;SDS011;15074;50.940;5.282;2023-06-19T04:24:42;4.10;;;3.80;;
27666;SDS011;15074;50.940;5.282;2023-06-19T04:27:07;4.30;;;3.90;;
27666;SDS011;15074;50.940;5.282;2023-06-19T04:29:33;5.30;;;4.55;;
27666;SDS011;15074;50.940;5.282;2023-06-19T04:32:00;5.07;;;4.65;;
27666;SDS011;15074;50.940;5.282;2023-06-19T04:34:28;5.53;;;5.03;;
27666;SDS011;15074;50.940;5.282;2023-06-19T04:36:54;5.57;;;5.07;;
27666;SDS011;15074;50.940;5.282;2023-06-19T04:39:23;5.90;;;5.38;;
27666;SDS011;15074;50.940;5.282;2023-06-19T04:41:49;6.20;;;5.70;;
27666;SDS011;15074;50.940;5.282;2023-06-19T04:44:15;6.63;;;6.03;;
27666;SDS011;15074;50.940;5.282;2023-06-19T04:46:41;7.05;;;6.45;;
27666;SDS011;15074;50.940;5.282;2023-06-19T04:51:34;7.03;;;6.43;;
27666;SDS011;15074;50.940;5.282;2023-06-19T04:54:00;6.88;;;6.28;;
27666;SDS011;15074;50.940;5.282;2023-06-19T04:56:26;7.80;;;6.82;;
27666;SDS011;15074;50.940;5.282;2023-06-19T04:58:53;8.45;;;7.75;;
27666;SDS011;15074;50.940;5.282;2023-06-19T05:01:24;14.18;;;7.97;;
27666;SDS011;15074;50.940;5.282;2023-06-19T05:03:53;9.18;;;8.00;;
27666;SDS011;15074;50.940;5.282;2023-06-19T05:06:19;8.75;;;7.43;;
27666;SDS011;15074;50.940;5.282;2023-06-19T05:08:48;7.45;;;6.85;;
27666;SDS011;15074;50.940;5.282;2023-06-19T05:11:13;8.90;;;8.07;;
27666;SDS011;15074;50.940;5.282;2023-06-19T05:13:39;8.20;;;7.50;;
27666;SDS011;15074;50.940;5.282;2023-06-19T05:16:05;9.18;;;8.40;;
27666;SDS011;15074;50.940;5.282;2023-06-19T05:18:30;8.13;;;7.43;;
27666;SDS011;15074;50.940;5.282;2023-06-19T05:20:56;8.63;;;7.82;;
27666;SDS011;15074;50.940;5.282;2023-06-19T05:23:22;8.98;;;8.10;;
27666;SDS011;15074;50.940;5.282;2023-06-19T05:25:47;9.88;;;9.07;;
27666;SDS011;15074;50.940;5.282;2023-06-19T05:28:13;11.27;;;9.18;;
27666;SDS011;15074;50.940;5.282;2023-06-19T05:30:39;8.32;;;7.72;;
27666;SDS011;15074;50.940;5.282;2023-06-19T05:33:04;8.05;;;7.13;;
27666;SDS011;15074;50.940;5.282;2023-06-19T05:35:30;8.65;;;7.88;;
27666;SDS011;15074;50.940;5.282;2023-06-19T05:37:56;8.52;;;7.65;;
27666;SDS011;15074;50.940;5.282;2023-06-19T05:40:22;8.02;;;7.32;;
27666;SDS011;15074;50.940;5.282;2023-06-19T05:42:48;7.40;;;6.78;;
27666;SDS011;15074;50.940;5.282;2023-06-19T05:45:14;6.75;;;6.25;;
27666;SDS011;15074;50.940;5.282;2023-06-19T05:47:39;6.50;;;5.90;;
27666;SDS011;15074;50.940;5.282;2023-06-19T05:50:05;6.43;;;5.82;;
27666;SDS011;15074;50.940;5.282;2023-06-19T05:52:31;5.40;;;5.00;;
27666;SDS011;15074;50.940;5.282;2023-06-19T05:54:57;5.32;;;4.85;;
27666;SDS011;15074;50.940;5.282;2023-06-19T05:57:23;4.28;;;3.88;;
27666;SDS011;15074;50.940;5.282;2023-06-19T05:59:52;4.85;;;4.38;;
27666;SDS011;15074;50.940;5.282;2023-06-19T06:02:18;4.55;;;4.15;;
27666;SDS011;15074;50.940;5.282;2023-06-19T06:04:44;9.75;;;3.55;;
27666;SDS011;15074;50.940;5.282;2023-06-19T06:07:10;3.83;;;3.53;;
27666;SDS011;15074;50.940;5.282;2023-06-19T06:09:36;3.50;;;3.20;;
27666;SDS011;15074;50.940;5.282;2023-06-19T06:12:02;4.10;;;3.80;;
27666;SDS011;15074;50.940;5.282;2023-06-19T06:14:28;3.88;;;3.53;;
27666;SDS011;15074;50.940;5.282;2023-06-19T06:16:53;4.10;;;3.80;;
27666;SDS011;15074;50.940;5.282;2023-06-19T06:19:19;3.50;;;3.20;;
27666;SDS011;15074;50.940;5.282;2023-06-19T06:21:48;4.22;;;3.72;;
27666;SDS011;15074;50.940;5.282;2023-06-19T06:24:14;4.35;;;3.95;;
27666;SDS011;15074;50.940;5.282;2023-06-19T06:26:40;3.67;;;3.38;;
27666;SDS011;15074;50.940;5.282;2023-06-19T06:29:07;3.95;;;3.63;;
27666;SDS011;15074;50.940;5.282;2023-06-19T06:31:33;3.58;;;3.33;;
27666;SDS011;15074;50.940;5.282;2023-06-19T06:33:59;3.65;;;3.35;;
27666;SDS011;15074;50.940;5.282;2023-06-19T06:36:25;3.83;;;3.53;;
27666;SDS011;15074;50.940;5.282;2023-06-19T06:38:50;5.30;;;4.10;;
27666;SDS011;15074;50.940;5.282;2023-06-19T06:41:16;4.65;;;3.95;;
27666;SDS011;15074;50.940;5.282;2023-06-19T06:43:42;4.22;;;3.90;;
27666;SDS011;15074;50.940;5.282;2023-06-19T06:46:08;4.68;;;3.97;;
27666;SDS011;15074;50.940;5.282;2023-06-19T06:48:35;4.68;;;4.20;;
27666;SDS011;15074;50.940;5.282;2023-06-19T06:51:01;4.68;;;4.28;;
27666;SDS011;15074;50.940;5.282;2023-06-19T06:53:27;4.43;;;4.13;;
27666;SDS011;15074;50.940;5.282;2023-06-19T06:55:53;6.43;;;4.55;;
27666;SDS011;15074;50.940;5.282;2023-06-19T06:58:19;5.07;;;4.47;;
27666;SDS011;15074;50.940;5.282;2023-06-19T07:00:45;4.40;;;3.75;;
27666;SDS011;15074;50.940;5.282;2023-06-19T07:03:11;4.55;;;4.15;;
27666;SDS011;15074;50.940;5.282;2023-06-19T07:05:37;4.53;;;4.13;;
27666;SDS011;15074;50.940;5.282;2023-06-19T07:08:02;4.50;;;4.10;;
27666;SDS011;15074;50.940;5.282;2023-06-19T07:10:29;4.47;;;3.92;;
27666;SDS011;15074;50.940;5.282;2023-06-19T07:13:05;5.03;;;4.63;;
27666;SDS011;15074;50.940;5.282;2023-06-19T07:15:30;4.75;;;4.22;;
27666;SDS011;15074;50.940;5.282;2023-06-19T07:17:56;4.75;;;4.35;;
27666;SDS011;15074;50.940;5.282;2023-06-19T07:20:22;4.85;;;4.45;;
27666;SDS011;15074;50.940;5.282;2023-06-19T07:22:50;4.78;;;4.38;;
27666;SDS011;15074;50.940;5.282;2023-06-19T07:25:16;4.80;;;4.35;;
27666;SDS011;15074;50.940;5.282;2023-06-19T07:27:42;7.25;;;5.03;;
27666;SDS011;15074;50.940;5.282;2023-06-19T07:30:08;4.75;;;4.45;;
27666;SDS011;15074;50.940;5.282;2023-06-19T07:32:34;4.88;;;4.47;;
27666;SDS011;15074;50.940;5.282;2023-06-19T07:34:59;5.00;;;4.57;;
27666;SDS011;15074;50.940;5.282;2023-06-19T07:37:25;4.95;;;4.53;;
27666;SDS011;15074;50.940;5.282;2023-06-19T07:39:52;4.78;;;4.38;;
27666;SDS011;15074;50.940;5.282;2023-06-19T07:42:18;5.40;;;5.00;;
27666;SDS011;15074;50.940;5.282;2023-06-19T07:44:44;5.70;;;5.20;;
27666;SDS011;15074;50.940;5.282;2023-06-19T07:47:11;5.20;;;4.80;;
27666;SDS011;15074;50.940;5.282;2023-06-19T07:49:37;5.13;;;4.63;;
27666;SDS011;15074;50.940;5.282;2023-06-19T07:52:03;6.20;;;5.32;;
27666;SDS011;15074;50.940;5.282;2023-06-19T07:54:29;6.22;;;5.75;;
27666;SDS011;15074;50.940;5.282;2023-06-19T07:56:55;6.47;;;5.97;;
27666;SDS011;15074;50.940;5.282;2023-06-19T07:59:21;6.55;;;6.05;;
27666;SDS011;15074;50.940;5.282;2023-06-19T08:01:47;6.53;;;5.93;;
27666;SDS011;15074;50.940;5.282;2023-06-19T08:04:13;7.30;;;6.63;;
27666;SDS011;15074;50.940;5.282;2023-06-19T08:06:39;6.05;;;5.65;;
27666;SDS011;15074;50.940;5.282;2023-06-19T08:09:05;6.10;;;5.65;;
27666;SDS011;15074;50.940;5.282;2023-06-19T08:11:30;6.05;;;5.55;;
27666;SDS011;15074;50.940;5.282;2023-06-19T08:13:56;6.03;;;5.63;;
27666;SDS011;15074;50.940;5.282;2023-06-19T08:16:24;6.10;;;5.68;;
27666;SDS011;15074;50.940;5.282;2023-06-19T08:18:51;5.97;;;5.43;;
27666;SDS011;15074;50.940;5.282;2023-06-19T08:21:16;6.90;;;6.30;;
27666;SDS011;15074;50.940;5.282;2023-06-19T08:23:43;6.20;;;5.75;;
27666;SDS011;15074;50.940;5.282;2023-06-19T08:26:09;8.27;;;5.00;;
27666;SDS011;15074;50.940;5.282;2023-06-19T08:28:35;6.35;;;5.85;;
27666;SDS011;15074;50.940;5.282;2023-06-19T08:31:02;6.47;;;6.03;;
27666;SDS011;15074;50.940;5.282;2023-06-19T08:33:28;7.13;;;6.55;;
27666;SDS011;15074;50.940;5.282;2023-06-19T08:35:53;6.30;;;5.75;;
27666;SDS011;15074;50.940;5.282;2023-06-19T08:38:19;5.43;;;5.03;;
27666;SDS011;15074;50.940;5.282;2023-06-19T08:40:45;5.65;;;5.25;;
27666;SDS011;15074;50.940;5.282;2023-06-19T08:43:10;7.63;;;6.40;;
27666;SDS011;15074;50.940;5.282;2023-06-19T08:45:36;5.00;;;4.00;;
27666;SDS011;15074;50.940;5.282;2023-06-19T08:48:02;8.80;;;6.30;;
27666;SDS011;15074;50.940;5.282;2023-06-19T08:50:32;7.10;;;6.60;;
27666;SDS011;15074;50.940;5.282;2023-06-19T08:52:58;5.32;;;4.82;;
27666;SDS011;15074;50.940;5.282;2023-06-19T08:55:24;4.30;;;3.90;;
27666;SDS011;15074;50.940;5.282;2023-06-19T08:57:50;3.75;;;3.45;;
27666;SDS011;15074;50.940;5.282;2023-06-19T09:00:24;4.97;;;4.57;;
27666;SDS011;15074;50.940;5.282;2023-06-19T09:02:51;4.85;;;4.35;;
27666;SDS011;15074;50.940;5.282;2023-06-19T09:05:18;4.95;;;4.38;;
27666;SDS011;15074;50.940;5.282;2023-06-19T09:07:44;5.40;;;3.95;;
27666;SDS011;15074;50.940;5.282;2023-06-19T09:10:20;6.32;;;5.63;;
27666;SDS011;15074;50.940;5.282;2023-06-19T09:13:02;5.65;;;5.15;;
27666;SDS011;15074;50.940;5.282;2023-06-19T09:15:33;4.93;;;4.53;;
27666;SDS011;15074;50.940;5.282;2023-06-19T09:18:04;4.97;;;4.47;;
27666;SDS011;15074;50.940;5.282;2023-06-19T09:20:30;4.72;;;4.05;;
27666;SDS011;15074;50.940;5.282;2023-06-19T09:22:56;5.05;;;3.95;;
27666;SDS011;15074;50.940;5.282;2023-06-19T09:25:23;4.75;;;4.15;;
27666;SDS011;15074;50.940;5.282;2023-06-19T09:27:50;4.07;;;3.78;;
27666;SDS011;15074;50.940;5.282;2023-06-19T09:30:15;4.72;;;4.30;;
27666;SDS011;15074;50.940;5.282;2023-06-19T09:32:41;3.20;;;2.90;;
27666;SDS011;15074;50.940;5.282;2023-06-19T09:35:07;3.60;;;2.95;;
27666;SDS011;15074;50.940;5.282;2023-06-19T09:37:33;3.95;;;3.30;;
27666;SDS011;15074;50.940;5.282;2023-06-19T09:39:59;3.63;;;3.28;;
27666;SDS011;15074;50.940;5.282;2023-06-19T09:42:36;9.95;;;4.25;;
27666;SDS011;15074;50.940;5.282;2023-06-19T09:45:07;5.50;;;3.70;;
27666;SDS011;15074;50.940;5.282;2023-06-19T09:47:38;4.15;;;3.65;;
27666;SDS011;15074;50.940;5.282;2023-06-19T09:50:07;3.83;;;2.95;;
27666;SDS011;15074;50.940;5.282;2023-06-19T09:52:36;3.35;;;3.05;;
27666;SDS011;15074;50.940;5.282;2023-06-19T09:55:02;3.20;;;2.90;;
27666;SDS011;15074;50.940;5.282;2023-06-19T09:57:30;3.70;;;3.40;;
27666;SDS011;15074;50.940;5.282;2023-06-19T09:59:58;3.42;;;3.13;;
27666;SDS011;15074;50.940;5.282;2023-06-19T10:02:34;3.10;;;2.80;;
27666;SDS011;15074;50.940;5.282;2023-06-19T10:05:00;4.87;;;3.30;;
27666;SDS011;15074;50.940;5.282;2023-06-19T10:07:32;5.20;;;3.53;;
27666;SDS011;15074;50.940;5.282;2023-06-19T10:10:05;4.78;;;3.17;;
27666;SDS011;15074;50.940;5.282;2023-06-19T10:13:15;5.30;;;3.58;;
27666;SDS011;15074;50.940;5.282;2023-06-19T10:15:44;3.63;;;3.33;;
27666;SDS011;15074;50.940;5.282;2023-06-19T10:18:16;3.90;;;3.60;;
27666;SDS011;15074;50.940;5.282;2023-06-19T10:20:43;4.68;;;4.18;;
27666;SDS011;15074;50.940;5.282;2023-06-19T10:23:11;5.57;;;3.85;;
27666;SDS011;15074;50.940;5.282;2023-06-19T10:25:42;3.67;;;3.38;;
27666;SDS011;15074;50.940;5.282;2023-06-19T10:28:20;3.88;;;3.58;;
27666;SDS011;15074;50.940;5.282;2023-06-19T10:30:52;3.97;;;3.63;;
27666;SDS011;15074;50.940;5.282;2023-06-19T10:33:19;4.50;;;4.10;;
27666;SDS011;15074;50.940;5.282;2023-06-19T10:35:45;4.10;;;3.70;;
27666;SDS011;15074;50.940;5.282;2023-06-19T10:38:13;3.33;;;2.90;;
27666;SDS011;15074;50.940;5.282;2023-06-19T10:40:40;4.50;;;3.65;;
27666;SDS011;15074;50.940;5.282;2023-06-19T10:43:06;4.63;;;3.53;;
27666;SDS011;15074;50.940;5.282;2023-06-19T10:45:32;4.50;;;3.25;;
27666;SDS011;15074;50.940;5.282;2023-06-19T10:47:57;3.85;;;3.40;;
27666;SDS011;15074;50.940;5.282;2023-06-19T10:50:27;5.88;;;4.15;;
27666;SDS011;15074;50.940;5.282;2023-06-19T10:52:53;4.70;;;3.58;;
27666;SDS011;15074;50.940;5.282;2023-06-19T10:55:20;3.88;;;3.35;;
27666;SDS011;15074;50.940;5.282;2023-06-19T10:57:47;3.85;;;3.55;;
27666;SDS011;15074;50.940;5.282;2023-06-19T11:02:49;4.00;;;3.38;;
27666;SDS011;15074;50.940;5.282;2023-06-19T11:05:15;5.97;;;3.55;;
27666;SDS011;15074;50.940;5.282;2023-06-19T11:07:44;4.45;;;4.15;;
27666;SDS011;15074;50.940;5.282;2023-06-19T11:10:19;5.32;;;4.78;;
27666;SDS011;15074;50.940;5.282;2023-06-19T11:12:47;4.00;;;3.63;;
27666;SDS011;15074;50.940;5.282;2023-06-19T11:15:13;4.72;;;4.18;;
27666;SDS011;15074;50.940;5.282;2023-06-19T11:17:39;3.97;;;3.58;;
27666;SDS011;15074;50.940;5.282;2023-06-19T11:20:09;5.03;;;4.38;;
27666;SDS011;15074;50.940;5.282;2023-06-19T11:22:36;4.32;;;3.92;;
27666;SDS011;15074;50.940;5.282;2023-06-19T11:25:06;4.25;;;3.38;;
27666;SDS011;15074;50.940;5.282;2023-06-19T11:27:34;4.20;;;3.80;;
27666;SDS011;15074;50.940;5.282;2023-06-19T11:30:05;3.80;;;3.50;;
27666;SDS011;15074;50.940;5.282;2023-06-19T11:32:34;4.10;;;3.70;;
27666;SDS011;15074;50.940;5.282;2023-06-19T11:35:15;4.32;;;3.17;;
27666;SDS011;15074;50.940;5.282;2023-06-19T11:37:42;4.13;;;3.83;;
27666;SDS011;15074;50.940;5.282;2023-06-19T11:40:09;4.55;;;4.10;;
27666;SDS011;15074;50.940;5.282;2023-06-19T11:42:46;4.50;;;4.10;;
27666;SDS011;15074;50.940;5.282;2023-06-19T11:45:18;4.65;;;4.20;;
27666;SDS011;15074;50.940;5.282;2023-06-19T11:47:44;4.25;;;3.83;;
27666;SDS011;15074;50.940;5.282;2023-06-19T11:50:11;3.88;;;3.58;;
27666;SDS011;15074;50.940;5.282;2023-06-19T11:52:38;4.35;;;3.67;;
27666;SDS011;15074;50.940;5.282;2023-06-19T11:55:04;4.28;;;3.88;;
27666;SDS011;15074;50.940;5.282;2023-06-19T11:57:31;4.00;;;3.60;;
27666;SDS011;15074;50.940;5.282;2023-06-19T11:59:58;4.18;;;3.78;;
27666;SDS011;15074;50.940;5.282;2023-06-19T12:02:23;4.22;;;3.85;;
27666;SDS011;15074;50.940;5.282;2023-06-19T12:04:49;4.65;;;3.70;;
27666;SDS011;15074;50.940;5.282;2023-06-19T12:07:15;4.40;;;3.53;;
27666;SDS011;15074;50.940;5.282;2023-06-19T12:09:41;3.65;;;3.00;;
27666;SDS011;15074;50.940;5.282;2023-06-19T12:14:33;3.90;;;3.50;;
27666;SDS011;15074;50.940;5.282;2023-06-19T12:16:59;3.78;;;3.25;;
27666;SDS011;15074;50.940;5.282;2023-06-19T12:19:25;3.70;;;3.40;;
27666;SDS011;15074;50.940;5.282;2023-06-19T12:21:52;3.80;;;3.50;;
27666;SDS011;15074;50.940;5.282;2023-06-19T12:24:18;3.97;;;3.67;;
27666;SDS011;15074;50.940;5.282;2023-06-19T12:26:44;5.32;;;4.25;;
27666;SDS011;15074;50.940;5.282;2023-06-19T12:29:10;3.90;;;3.50;;
27666;SDS011;15074;50.940;5.282;2023-06-19T12:31:35;3.97;;;3.22;;
27666;SDS011;15074;50.940;5.282;2023-06-19T12:34:01;4.03;;;3.72;;
27666;SDS011;15074;50.940;5.282;2023-06-19T12:36:28;3.33;;;3.05;;
27666;SDS011;15074;50.940;5.282;2023-06-19T12:38:56;6.65;;;3.72;;
27666;SDS011;15074;50.940;5.282;2023-06-19T12:41:21;3.67;;;3.38;;
27666;SDS011;15074;50.940;5.282;2023-06-19T12:43:47;4.20;;;3.80;;
27666;SDS011;15074;50.940;5.282;2023-06-19T12:46:13;4.40;;;4.07;;
27666;SDS011;15074;50.940;5.282;2023-06-19T12:48:40;4.68;;;4.28;;
27666;SDS011;15074;50.940;5.282;2023-06-19T12:51:06;4.07;;;3.67;;
27666;SDS011;15074;50.940;5.282;2023-06-19T12:53:32;4.88;;;4.38;;
27666;SDS011;15074;50.940;5.282;2023-06-19T12:55:58;5.22;;;4.03;;
27666;SDS011;15074;50.940;5.282;2023-06-19T12:58:24;28.77;;;5.03;;
27666;SDS011;15074;50.940;5.282;2023-06-19T13:00:50;3.88;;;3.53;;
27666;SDS011;15074;50.940;5.282;2023-06-19T13:03:17;5.05;;;4.15;;
27666;SDS011;15074;50.940;5.282;2023-06-19T13:05:43;3.53;;;3.22;;
27666;SDS011;15074;50.940;5.282;2023-06-19T13:08:09;3.95;;;3.55;;
27666;SDS011;15074;50.940;5.282;2023-06-19T13:10:35;2.88;;;2.65;;
27666;SDS011;15074;50.940;5.282;2023-06-19T13:13:01;2.83;;;2.42;;
27666;SDS011;15074;50.940;5.282;2023-06-19T13:15:26;3.22;;;2.95;;
27666;SDS011;15074;50.940;5.282;2023-06-19T13:17:53;3.88;;;2.97;;
27666;SDS011;15074;50.940;5.282;2023-06-19T13:20:18;3.70;;;3.03;;
27666;SDS011;15074;50.940;5.282;2023-06-19T13:22:44;4.97;;;3.38;;
27666;SDS011;15074;50.940;5.282;2023-06-19T13:25:10;3.40;;;3.10;;
27666;SDS011;15074;50.940;5.282;2023-06-19T13:27:35;3.03;;;2.78;;
27666;SDS011;15074;50.940;5.282;2023-06-19T13:30:01;3.55;;;2.53;;
27666;SDS011;15074;50.940;5.282;2023-06-19T13:32:27;2.70;;;2.50;;
27666;SDS011;15074;50.940;5.282;2023-06-19T13:34:53;4.28;;;2.60;;
27666;SDS011;15074;50.940;5.282;2023-06-19T13:37:19;2.95;;;2.63;;
27666;SDS011;15074;50.940;5.282;2023-06-19T13:39:45;3.00;;;2.80;;
27666;SDS011;15074;50.940;5.282;2023-06-19T13:42:10;3.63;;;3.33;;
27666;SDS011;15074;50.940;5.282;2023-06-19T13:44:37;3.30;;;2.40;;
27666;SDS011;15074;50.940;5.282;2023-06-19T13:47:03;2.90;;;2.60;;
27666;SDS011;15074;50.940;5.282;2023-06-19T13:49:29;3.42;;;3.08;;
27666;SDS011;15074;50.940;5.282;2023-06-19T13:51:55;4.78;;;3.15;;
27666;SDS011;15074;50.940;5.282;2023-06-19T13:54:21;3.13;;;2.83;;
27666;SDS011;15074;50.940;5.282;2023-06-19T13:56:47;3.22;;;2.85;;
27666;SDS011;15074;50.940;5.282;2023-06-19T13:59:14;3.37;;;3.07;;
27666;SDS011;15074;50.940;5.282;2023-06-19T14:01:40;3.13;;;2.65;;
27666;SDS011;15074;50.940;5.282;2023-06-19T14:04:06;4.28;;;2.70;;
27666;SDS011;15074;50.940;5.282;2023-06-19T14:06:33;3.25;;;2.88;;
27666;SDS011;15074;50.940;5.282;2023-06-19T14:09:00;3.27;;;2.53;;
27666;SDS011;15074;50.940;5.282;2023-06-19T14:11:26;2.53;;;2.30;;
27666;SDS011;15074;50.940;5.282;2023-06-19T14:13:52;2.55;;;2.35;;
27666;SDS011;15074;50.940;5.282;2023-06-19T14:16:17;3.08;;;2.78;;
27666;SDS011;15074;50.940;5.282;2023-06-19T14:18:43;2.90;;;2.60;;
27666;SDS011;15074;50.940;5.282;2023-06-19T14:21:08;2.95;;;2.33;;
27666;SDS011;15074;50.940;5.282;2023-06-19T14:23:34;2.35;;;2.15;;
27666;SDS011;15074;50.940;5.282;2023-06-19T14:26:05;3.78;;;2.15;;
27666;SDS011;15074;50.940;5.282;2023-06-19T14:28:31;2.45;;;2.25;;
27666;SDS011;15074;50.940;5.282;2023-06-19T14:30:56;2.35;;;2.15;;
27666;SDS011;15074;50.940;5.282;2023-06-19T14:33:22;2.28;;;2.08;;
27666;SDS011;15074;50.940;5.282;2023-06-19T14:35:47;2.83;;;2.10;;
27666;SDS011;15074;50.940;5.282;2023-06-19T14:38:13;3.72;;;2.13;;
27666;SDS011;15074;50.940;5.282;2023-06-19T14:40:40;3.17;;;2.47;;
27666;SDS011;15074;50.940;5.282;2023-06-19T14:43:06;5.43;;;2.20;;
27666;SDS011;15074;50.940;5.282;2023-06-19T14:45:34;2.80;;;2.22;;
27666;SDS011;15074;50.940;5.282;2023-06-19T14:48:00;3.05;;;2.10;;
27666;SDS011;15074;50.940;5.282;2023-06-19T14:50:27;3.05;;;2.58;;
27666;SDS011;15074;50.940;5.282;2023-06-19T14:52:56;2.95;;;2.20;;
27666;SDS011;15074;50.940;5.282;2023-06-19T14:55:22;3.65;;;2.17;;